createdAt,value
2022-09-07T00:00:29.754Z,15.71
2022-09-07T00:02:59.576Z,15.75
2022-09-07T00:05:30.176Z,15.77
2022-09-07T00:08:00.912Z,15.81
2022-09-07T00:10:31.977Z,15.86
2022-09-07T00:13:01.663Z,15.91
2022-09-07T00:15:31.412Z,15.95
2022-09-07T00:18:01.540Z,15.97
2022-09-07T00:20:31.198Z,15.99
2022-09-07T00:23:00.908Z,16.01
2022-09-07T00:25:32.252Z,16.03
2022-09-07T00:28:02.004Z,16.04
2022-09-07T00:30:31.883Z,16.05
2022-09-07T00:33:01.656Z,16.08
2022-09-07T00:35:31.248Z,16.13
2022-09-07T00:38:00.850Z,16.17
2022-09-07T00:40:31.817Z,16.17
2022-09-07T00:43:01.720Z,16.16
2022-09-07T00:45:31.426Z,16.20
2022-09-07T00:48:07.457Z,16.25
2022-09-07T01:55:18.660Z,16.17
2022-09-07T01:57:56.499Z,16.15
2022-09-07T02:00:26.710Z,16.23
2022-09-07T02:03:04.066Z,16.29
2022-09-07T02:05:41.165Z,16.30
2022-09-07T02:08:15.476Z,16.33
2022-09-07T02:10:55.825Z,16.38
2022-09-07T02:13:35.432Z,16.37
2022-09-07T02:17:19.142Z,16.36
2022-09-07T02:24:38.257Z,16.35
2022-09-07T02:29:02.222Z,16.33
2022-09-07T02:31:32.385Z,16.33
2022-09-07T02:34:03.067Z,16.31
2022-09-07T02:36:41.036Z,16.29
2022-09-07T02:39:11.020Z,16.24
2022-09-07T02:41:43.983Z,16.19
2022-09-07T02:44:20.852Z,16.18
2022-09-07T02:47:15.227Z,16.16
2022-09-07T02:50:30.682Z,16.11
2022-09-07T02:53:33.726Z,16.05
2022-09-07T02:56:23.369Z,16.05
2022-09-07T02:59:07.653Z,16.00
2022-09-07T03:02:52.126Z,15.98
2022-09-07T03:14:16.567Z,15.99
2022-09-07T03:16:50.703Z,15.95
2022-09-07T03:19:20.797Z,15.93
2022-09-07T03:21:50.543Z,15.96
2022-09-07T03:24:20.702Z,15.91
2022-09-07T03:26:51.938Z,15.88
2022-09-07T03:29:21.827Z,15.83
2022-09-07T03:31:52.904Z,15.79
2022-09-07T03:34:22.727Z,15.78
2022-09-07T03:36:52.471Z,15.74
2022-09-07T03:39:23.851Z,15.75
2022-09-07T03:41:53.671Z,15.74
2022-09-07T03:44:23.639Z,15.73
2022-09-07T03:46:54.755Z,15.75
2022-09-07T03:49:24.571Z,15.77
2022-09-07T03:51:54.339Z,15.77
2022-09-07T03:54:24.138Z,15.77
2022-09-07T03:56:53.953Z,15.77
2022-09-07T03:59:23.616Z,15.77
2022-09-07T04:01:54.810Z,15.79
2022-09-07T04:04:24.558Z,15.80
2022-09-07T04:06:54.358Z,15.84
2022-09-07T04:09:24.072Z,15.88
2022-09-07T04:11:53.898Z,15.92
2022-09-07T04:14:23.942Z,15.93
2022-09-07T04:16:55.104Z,15.94
2022-09-07T04:19:25.127Z,15.93
2022-09-07T04:21:55.182Z,15.91
2022-09-07T04:24:24.890Z,15.90
2022-09-07T04:26:54.548Z,15.88
2022-09-07T04:29:24.362Z,15.90
2022-09-07T04:31:55.526Z,15.91
2022-09-07T04:34:25.452Z,15.91
2022-09-07T04:36:55.152Z,15.95
2022-09-07T04:39:25.134Z,15.96
2022-09-07T04:41:55.031Z,15.97
2022-09-07T04:44:24.724Z,15.97
2022-09-07T04:46:55.863Z,15.97
2022-09-07T04:49:25.555Z,15.98
2022-09-07T04:51:55.394Z,15.97
2022-09-07T04:54:26.494Z,15.99
2022-09-07T04:56:56.171Z,16.03
2022-09-07T04:59:25.916Z,16.04
2022-09-07T05:01:57.315Z,16.06
2022-09-07T05:04:27.087Z,16.12
2022-09-07T05:06:57.070Z,16.13
2022-09-07T05:09:26.729Z,16.16
2022-09-07T05:11:56.544Z,16.21
2022-09-07T05:14:26.945Z,16.23
2022-09-07T05:16:58.192Z,16.22
2022-09-07T05:19:28.094Z,16.30
2022-09-07T05:21:59.418Z,16.23
2022-09-07T05:24:29.311Z,16.22
2022-09-07T05:27:01.732Z,16.25
2022-09-07T05:32:22.828Z,16.25
2022-09-07T05:34:53.618Z,16.27
2022-09-07T05:37:24.083Z,16.24
2022-09-07T05:39:56.914Z,16.24
2022-09-07T05:42:26.813Z,16.27
2022-09-07T05:44:56.579Z,16.28
2022-09-07T05:47:27.906Z,16.30
2022-09-07T05:49:57.768Z,16.31
2022-09-07T05:52:27.694Z,16.33
2022-09-07T05:55:07.769Z,16.35
2022-09-07T05:57:47.370Z,16.37
2022-09-07T06:00:17.686Z,16.40
2022-09-07T06:02:49.104Z,16.42
2022-09-07T06:05:18.904Z,16.43
2022-09-07T06:07:49.224Z,16.43
2022-09-07T06:13:09.526Z,16.48
2022-09-07T06:15:39.192Z,16.49
2022-09-07T06:18:10.136Z,16.53
2022-09-07T06:20:39.769Z,16.64
2022-09-07T06:23:09.363Z,16.77
2022-09-07T06:25:38.938Z,16.91
2022-09-07T06:28:08.486Z,16.98
2022-09-07T06:30:38.057Z,17.07
2022-09-07T06:33:09.065Z,17.18
2022-09-07T06:35:38.616Z,17.27
2022-09-07T06:38:08.230Z,17.37
2022-09-07T06:40:37.794Z,17.50
2022-09-07T06:43:07.328Z,17.56
2022-09-07T06:45:36.975Z,17.69
2022-09-07T06:48:06.632Z,17.69
2022-09-07T06:50:38.306Z,17.74
2022-09-07T06:55:57.749Z,17.82
2022-09-07T06:58:28.645Z,17.89
2022-09-07T07:00:58.408Z,18.01
2022-09-07T07:03:29.642Z,18.12
2022-09-07T07:06:00.720Z,18.25
2022-09-07T07:08:30.535Z,18.40
2022-09-07T07:11:05.223Z,18.54
2022-09-07T07:13:35.809Z,18.61
2022-09-07T07:16:07.206Z,18.71
2022-09-07T07:18:37.770Z,18.72
2022-09-07T07:21:11.835Z,18.75
2022-09-07T07:23:42.508Z,18.75
2022-09-07T07:26:16.396Z,18.72
2022-09-07T07:29:03.718Z,18.76
2022-09-07T07:31:35.023Z,18.80
2022-09-07T07:34:04.691Z,18.83
2022-09-07T07:36:36.029Z,18.87
2022-09-07T07:39:06.703Z,18.91
2022-09-07T07:44:26.017Z,19.03
2022-09-07T07:46:55.656Z,19.13
2022-09-07T07:49:25.556Z,19.21
2022-09-07T07:54:46.877Z,19.36
2022-09-07T07:57:18.934Z,19.35
2022-09-07T07:59:48.460Z,19.34
2022-09-07T08:02:18.784Z,19.35
2022-09-07T08:04:48.387Z,19.46
2022-09-07T08:07:19.825Z,19.53
2022-09-07T08:09:49.986Z,19.62
2022-09-07T08:12:21.295Z,19.65
2022-09-07T08:14:51.007Z,19.76
2022-09-07T08:17:20.628Z,19.83
2022-09-07T08:19:50.962Z,19.86
2022-09-07T08:22:21.705Z,20.01
2022-09-07T08:24:51.345Z,20.03
2022-09-07T08:27:21.100Z,20.07
2022-09-07T08:29:51.540Z,20.09
2022-09-07T08:32:20.972Z,20.07
2022-09-07T08:34:50.325Z,20.10
2022-09-07T08:37:21.341Z,20.23
2022-09-07T08:39:50.743Z,20.38
2022-09-07T08:42:47.541Z,20.49
2022-09-07T08:45:27.350Z,20.69
2022-09-07T08:47:57.037Z,20.86
2022-09-07T08:50:34.689Z,21.08
2022-09-07T08:53:14.031Z,21.24
2022-09-07T08:55:52.861Z,21.35
2022-09-07T08:58:48.097Z,21.47
2022-09-07T09:01:36.700Z,21.54
2022-09-07T09:04:17.846Z,21.69
2022-09-07T09:07:06.888Z,21.85
2022-09-07T09:10:13.811Z,22.13
2022-09-07T09:13:03.432Z,22.29
2022-09-07T09:15:51.737Z,22.43
2022-09-07T09:18:48.808Z,22.62
2022-09-07T09:21:20.604Z,22.71
2022-09-07T09:23:55.021Z,22.71
2022-09-07T09:26:28.899Z,22.84
2022-09-07T09:28:58.783Z,22.98
2022-09-07T09:31:36.526Z,23.08
2022-09-07T09:34:13.705Z,23.19
2022-09-07T09:36:48.853Z,23.20
2022-09-07T09:39:36.569Z,23.25
2022-09-07T09:42:24.805Z,23.30
2022-09-07T09:45:04.153Z,23.42
2022-09-07T09:47:36.914Z,23.41
2022-09-07T09:52:28.892Z,23.34
2022-09-07T09:53:24.883Z,23.29
2022-09-07T09:55:55.154Z,23.21
2022-09-07T10:01:33.532Z,23.23
2022-09-07T10:04:32.927Z,23.40
2022-09-07T10:07:18.440Z,23.39
2022-09-07T10:09:53.632Z,23.44
2022-09-07T10:12:30.381Z,23.46
2022-09-07T10:15:03.445Z,23.66
2022-09-07T10:17:37.708Z,23.78
2022-09-07T10:20:36.481Z,23.93
2022-09-07T10:23:20.860Z,23.96
2022-09-07T10:25:51.082Z,23.93
2022-09-07T10:28:23.918Z,23.90
2022-09-07T10:31:17.824Z,23.83
2022-09-07T10:37:03.314Z,24.13
2022-09-07T10:39:37.983Z,24.23
2022-09-07T10:42:26.277Z,24.36
2022-09-07T10:45:09.184Z,24.45
2022-09-07T10:47:56.051Z,24.56
2022-09-07T10:50:33.832Z,24.63
2022-09-07T10:53:46.610Z,24.67
2022-09-07T10:56:25.544Z,24.78
2022-09-07T10:59:11.566Z,24.72
2022-09-07T11:01:55.758Z,24.83
2022-09-07T11:04:57.094Z,24.90
2022-09-07T11:07:54.520Z,25.05
2022-09-07T11:10:39.541Z,25.24
2022-09-07T11:13:15.512Z,25.42
2022-09-07T11:15:51.849Z,25.58
2022-09-07T11:18:29.170Z,25.74
2022-09-07T11:21:03.562Z,25.87
2022-09-07T11:23:41.406Z,26.14
2022-09-07T11:26:18.664Z,26.39
2022-09-07T11:31:49.784Z,26.83
2022-09-07T11:34:25.839Z,27.01
2022-09-07T11:37:04.150Z,27.27
2022-09-07T11:39:42.491Z,27.54
2022-09-07T11:45:21.155Z,27.86
2022-09-07T11:47:59.114Z,27.98
2022-09-07T11:50:34.869Z,27.93
2022-09-07T11:53:14.197Z,27.86
2022-09-07T11:55:49.545Z,27.90
2022-09-07T11:58:49.364Z,28.08
2022-09-07T12:01:35.233Z,28.32
2022-09-07T12:04:40.248Z,28.39
2022-09-07T12:07:33.514Z,28.47
2022-09-07T12:10:35.650Z,28.63
2022-09-07T12:13:41.188Z,28.74
2022-09-07T12:16:19.493Z,28.75
2022-09-07T12:19:19.840Z,29.11
2022-09-07T12:21:57.647Z,29.31
2022-09-07T12:24:45.818Z,29.46
2022-09-07T12:27:40.370Z,29.72
2022-09-07T12:31:00.414Z,29.86
2022-09-07T12:33:36.601Z,29.98
2022-09-07T12:36:47.761Z,29.87
2022-09-07T12:39:25.761Z,29.52
2022-09-07T12:42:38.941Z,29.02
2022-09-07T12:45:52.789Z,28.56
2022-09-07T12:48:50.851Z,28.59
2022-09-07T12:54:36.840Z,27.97
2022-09-07T12:57:30.145Z,27.66
2022-09-07T13:00:15.035Z,27.32
2022-09-07T13:09:35.466Z,27.33
2022-09-07T13:15:52.805Z,27.45
2022-09-07T13:18:44.377Z,27.84
2022-09-07T13:21:43.651Z,28.67
2022-09-07T13:24:47.339Z,29.42
2022-09-07T13:27:43.727Z,29.85
2022-09-07T13:30:37.327Z,30.33
2022-09-07T13:33:55.316Z,30.88
2022-09-07T13:36:40.214Z,31.16
2022-09-07T13:39:16.777Z,31.27
2022-09-07T13:41:54.261Z,31.56
2022-09-07T13:44:28.528Z,31.89
2022-09-07T13:47:20.181Z,32.03
2022-09-07T13:50:16.678Z,32.21
2022-09-07T13:53:51.837Z,32.56
2022-09-07T13:56:37.687Z,32.78
2022-09-07T13:59:27.749Z,32.79
2022-09-07T14:01:58.880Z,32.94
2022-09-07T14:04:35.367Z,33.08
2022-09-07T14:07:07.821Z,33.23
2022-09-07T14:09:37.240Z,33.02
2022-09-07T14:12:16.881Z,32.27
2022-09-07T14:14:46.747Z,31.87
2022-09-07T14:17:20.222Z,31.34
2022-09-07T14:19:51.497Z,30.89
2022-09-07T14:22:28.262Z,30.61
2022-09-07T14:25:01.292Z,30.47
2022-09-07T14:27:36.867Z,30.28
2022-09-07T14:30:28.094Z,30.41
2022-09-07T14:33:03.020Z,30.52
2022-09-07T14:35:36.244Z,30.93
2022-09-07T14:39:04.013Z,31.68
2022-09-07T14:41:14.672Z,32.26
2022-09-07T14:43:56.141Z,32.52
2022-09-07T14:46:28.909Z,32.94
2022-09-07T14:49:01.660Z,33.24
2022-09-07T14:51:37.189Z,33.23
2022-09-07T14:54:10.080Z,33.42
2022-09-07T14:56:42.656Z,33.90
2022-09-07T14:59:34.209Z,33.79
2022-09-07T15:02:37.732Z,33.88
2022-09-07T15:05:29.227Z,33.86
2022-09-07T15:08:01.455Z,33.98
2022-09-07T15:10:41.234Z,33.26
2022-09-07T15:13:34.155Z,32.73
2022-09-07T15:16:06.481Z,32.39
2022-09-07T15:18:57.129Z,32.56
2022-09-07T15:21:30.442Z,32.75
2022-09-07T15:24:02.429Z,32.64
2022-09-07T15:29:32.378Z,32.54
2022-09-07T15:32:04.691Z,32.41
2022-09-07T15:34:34.783Z,32.24
2022-09-07T15:38:01.241Z,32.02
2022-09-07T15:39:54.835Z,31.92
2022-09-07T15:45:16.392Z,31.24
2022-09-07T15:47:52.218Z,30.76
2022-09-07T15:50:47.280Z,30.09
2022-09-07T15:56:07.549Z,29.48
2022-09-07T15:58:38.286Z,29.27
2022-09-07T16:03:59.611Z,28.75
2022-09-07T16:06:29.521Z,28.48
2022-09-07T16:08:58.905Z,28.19
2022-09-07T16:11:29.721Z,27.87
2022-09-07T16:14:03.759Z,27.66
2022-09-07T16:19:23.503Z,27.29
2022-09-07T16:21:57.178Z,27.11
2022-09-07T16:24:28.230Z,26.99
2022-09-07T16:26:57.655Z,26.76
2022-09-07T16:29:28.551Z,26.52
2022-09-07T16:34:47.292Z,26.14
2022-09-07T16:37:16.851Z,25.89
2022-09-07T16:39:46.241Z,25.63
2022-09-07T16:42:15.755Z,25.38
2022-09-07T16:44:46.617Z,25.17
2022-09-07T16:47:16.048Z,24.92
2022-09-07T16:49:45.465Z,24.69
2022-09-07T16:52:14.878Z,24.48
2022-09-07T16:54:44.287Z,24.29
2022-09-07T16:57:15.607Z,24.12
2022-09-07T16:59:46.375Z,23.97
2022-09-07T17:02:18.337Z,23.81
2022-09-07T17:04:48.076Z,23.66
2022-09-07T17:07:17.513Z,23.49
2022-09-07T17:09:47.053Z,23.33
2022-09-07T17:12:16.419Z,23.18
2022-09-07T17:14:47.242Z,23.08
2022-09-07T17:17:17.178Z,22.97
2022-09-07T17:19:46.941Z,22.85
2022-09-07T17:22:16.511Z,22.73
2022-09-07T17:24:46.448Z,22.61
2022-09-07T17:27:16.168Z,22.49
2022-09-07T17:29:46.894Z,22.39
2022-09-07T17:32:31.739Z,22.28
2022-09-07T17:35:01.274Z,22.14
2022-09-07T17:37:30.868Z,22.07
2022-09-07T17:40:00.406Z,21.99
2022-09-07T17:45:21.214Z,21.81
2022-09-07T17:47:50.555Z,21.71
2022-09-07T17:50:19.942Z,21.61
2022-09-07T17:52:52.681Z,21.47
2022-09-07T17:55:22.694Z,21.32
2022-09-07T17:57:52.052Z,21.16
2022-09-07T18:00:22.933Z,21.02
2022-09-07T18:02:52.372Z,20.89
2022-09-07T18:05:21.781Z,20.76
2022-09-07T18:07:51.118Z,20.62
2022-09-07T18:10:20.528Z,20.52
2022-09-07T18:12:49.969Z,20.44
2022-09-07T18:15:22.050Z,20.39
2022-09-07T18:17:53.146Z,20.29
2022-09-07T18:20:24.146Z,20.20
2022-09-07T18:22:54.039Z,20.13
2022-09-07T18:25:24.514Z,20.02
2022-09-07T18:30:43.657Z,19.81
2022-09-07T18:33:14.743Z,19.69
2022-09-07T18:35:46.903Z,19.63
2022-09-07T18:38:16.323Z,19.54
2022-09-07T18:40:47.967Z,19.42
2022-09-07T18:43:17.422Z,19.33
2022-09-07T18:45:46.891Z,19.26
2022-09-07T18:48:18.077Z,19.21
2022-09-07T18:50:54.949Z,19.11
2022-09-07T18:53:24.326Z,19.03
2022-09-07T18:55:53.745Z,18.94
2022-09-07T18:58:24.415Z,18.84
2022-09-07T19:00:58.195Z,18.73
2022-09-07T19:03:29.215Z,18.63
2022-09-07T19:06:00.133Z,18.55
2022-09-07T19:08:32.833Z,18.49
2022-09-07T19:11:07.626Z,18.42
2022-09-07T19:13:38.561Z,18.33
2022-09-07T19:16:13.240Z,18.24
2022-09-07T19:18:49.579Z,18.18
2022-09-07T19:21:23.470Z,18.12
2022-09-07T19:23:57.271Z,18.16
2022-09-07T19:26:29.476Z,18.12
2022-09-07T19:29:01.891Z,18.06
2022-09-07T19:31:32.469Z,17.95
2022-09-07T19:34:04.509Z,17.86
2022-09-07T19:36:35.068Z,17.79
2022-09-07T19:39:05.517Z,17.77
2022-09-07T19:41:35.304Z,17.77
2022-09-07T19:44:04.728Z,17.73
2022-09-07T19:46:34.231Z,17.70
2022-09-07T19:49:05.636Z,17.67
2022-09-07T19:51:36.851Z,17.65
2022-09-07T19:54:07.399Z,17.62
2022-09-07T19:56:39.619Z,17.62
2022-09-07T19:59:09.107Z,17.63
2022-09-07T20:01:40.478Z,17.64
2022-09-07T20:04:19.001Z,17.63
2022-09-07T20:06:50.509Z,17.62
2022-09-07T20:09:21.322Z,17.61
2022-09-07T20:11:50.875Z,17.60
2022-09-07T20:14:20.628Z,17.60
2022-09-07T20:16:50.197Z,17.57
2022-09-07T20:19:20.921Z,17.57
2022-09-07T20:21:55.535Z,17.57
2022-09-07T20:24:25.170Z,17.57
2022-09-07T20:26:54.647Z,17.58
2022-09-07T20:29:27.718Z,17.59
2022-09-07T20:31:59.783Z,17.56
2022-09-07T20:34:32.059Z,17.55
2022-09-07T20:37:02.065Z,17.52
2022-09-07T20:39:34.652Z,17.50
2022-09-07T20:42:08.819Z,17.48
2022-09-07T20:44:38.191Z,17.46
2022-09-07T20:47:07.732Z,17.44
2022-09-07T20:49:39.574Z,17.45
2022-09-07T20:52:08.931Z,17.45
2022-09-07T20:54:38.780Z,17.41
2022-09-07T20:57:08.189Z,17.39
2022-09-07T20:59:37.533Z,17.37
2022-09-07T21:02:07.111Z,17.35
2022-09-07T21:04:38.009Z,17.34
2022-09-07T21:07:07.377Z,17.34
2022-09-07T21:09:36.844Z,17.33
2022-09-07T21:12:06.557Z,17.33
2022-09-07T21:14:35.933Z,17.32
2022-09-07T21:17:05.606Z,17.33
2022-09-07T21:19:36.802Z,17.34
2022-09-07T21:22:07.545Z,17.35
2022-09-07T21:24:37.041Z,17.38
2022-09-07T21:27:07.634Z,17.40
2022-09-07T21:29:37.077Z,17.44
2022-09-07T21:32:06.829Z,17.47
2022-09-07T21:34:36.328Z,17.49
2022-09-07T21:37:07.118Z,17.50
2022-09-07T21:39:36.618Z,17.49
2022-09-07T21:42:06.273Z,17.48
2022-09-07T21:44:35.721Z,17.44
2022-09-07T21:47:05.397Z,17.44
2022-09-07T21:49:34.942Z,17.44
2022-09-07T21:52:04.707Z,17.46
2022-09-07T21:54:35.407Z,17.44
2022-09-07T21:57:05.389Z,17.45
2022-09-07T21:59:35.220Z,17.45
2022-09-07T22:02:05.488Z,17.51
2022-09-07T22:04:34.910Z,17.50
2022-09-07T22:07:04.285Z,17.75
2022-09-07T22:09:35.343Z,17.92
2022-09-07T22:12:05.397Z,18.08
2022-09-07T22:14:35.000Z,18.24
2022-09-07T22:17:04.405Z,18.43
2022-09-07T22:19:33.756Z,18.63
2022-09-07T22:22:03.163Z,18.84
2022-09-07T22:24:36.657Z,18.91
2022-09-07T22:27:07.363Z,18.86
2022-09-07T22:29:36.745Z,18.88
2022-09-07T22:32:06.301Z,18.74
2022-09-07T22:34:35.658Z,18.49
2022-09-07T22:37:05.116Z,18.26
2022-09-07T22:39:35.914Z,18.04
2022-09-07T22:42:05.933Z,17.82
2022-09-07T22:44:35.292Z,17.63
2022-09-07T22:47:04.994Z,17.46
2022-09-07T22:49:34.316Z,17.32
2022-09-07T22:52:04.340Z,17.21
2022-09-07T22:54:35.116Z,17.11
2022-09-07T22:57:05.239Z,17.02
2022-09-07T22:59:34.944Z,16.97
2022-09-07T23:02:05.084Z,16.86
2022-09-07T23:04:34.650Z,16.81
2022-09-07T23:07:06.539Z,16.69
2022-09-07T23:09:37.274Z,16.63
2022-09-07T23:12:07.272Z,16.61
2022-09-07T23:14:37.055Z,16.57
2022-09-07T23:17:06.543Z,16.56
2022-09-07T23:19:36.459Z,16.51
2022-09-07T23:22:07.747Z,16.50
2022-09-07T23:24:41.144Z,16.47
2022-09-07T23:27:10.485Z,16.45
2022-09-07T23:29:39.899Z,16.49
2022-09-07T23:32:09.300Z,16.39
2022-09-07T23:34:38.663Z,16.39
2022-09-07T23:37:08.124Z,16.35
2022-09-07T23:39:40.244Z,16.32
2022-09-07T23:42:09.765Z,16.31
2022-09-07T23:44:39.127Z,16.33
2022-09-07T23:47:08.688Z,16.38
2022-09-07T23:49:38.282Z,16.32
2022-09-07T23:52:07.813Z,16.30
2022-09-07T23:54:38.947Z,16.29
2022-09-07T23:57:08.326Z,16.25
2022-09-07T23:59:37.646Z,16.30
